METAR Analyzer

一覧表示

Hello, Guest. (Login)

RJCC/CTS  -  札幌/新千歳

観測日時
2022-09-30 06:00 (UTC) (27分前)
気温
21
露点
18
湿数
3
相対湿度
83%
QNH
1014.9hPa
推定現地気圧
1011.9hPa
推定海面気圧
1014.8hPa
体感温度
12.6
(無風時)
21.8
HI
21.3
気温前日比
-1
体感温度前日比
-2.9
HI前日比
-0.8
水平視程
>10000m
鉛直視程
データなし
雲底高度
No dense clouds
V/I
VMC (VFR)
RVR
No RVR data
卓越風
15kt from 170°
ガスト
No gust
降水
報告なし
その他の天気
報告なし
少しの(1/8) 層雲 @ 1000ft AGL / 散在する(3/8) 層雲 @ 1500ft AGL

RJCC 300600Z 17015KT 9999 FEW010 SCT015 21/18 Q1015 RMK 1ST010 3ST015 A2997

RJTT/HND  -  東京/羽田

観測日時
2022-09-30 06:00 (UTC) (27分前)
気温
27
露点
19
湿数
8
相対湿度
61.6%
QNH
1014.9hPa
推定現地気圧
1014.2hPa
推定海面気圧
1014.9hPa
体感温度
21.1
(無風時)
25.4
HI
28.2
気温前日比
+3
体感温度前日比
+4
HI前日比
+4.2
水平視程
>10000m
鉛直視程
データなし
雲底高度
No dense clouds
V/I
VMC (VFR)
RVR
No RVR data
卓越風
7kt from 80°
ガスト
No gust
降水
報告なし
その他の天気
報告なし
少しの(1/8) 積雲 @ 3000ft AGL

RJTT 300600Z 08007KT 9999 FEW030 27/19 Q1015 NOSIG RMK 1CU030 A2997

RJAA/NRT  -  東京/成田

観測日時
2022-09-30 06:00 (UTC) (27分前)
気温
26
露点
18
湿数
8
相対湿度
61.4%
QNH
1015.6hPa
推定現地気圧
1014.3hPa
推定海面気圧
1015.6hPa
体感温度
19.4
(無風時)
24.6
HI
26.3
気温前日比
+2
体感温度前日比
+1.3
HI前日比
+2.1
水平視程
>10000m
鉛直視程
データなし
雲底高度
No dense clouds
V/I
VMC (VFR)
RVR
No RVR data
卓越風
10kt from 80°
ガスト
No gust
降水
報告なし
その他の天気
報告なし
少しの(2/8) 積雲 @ 3500ft AGL

RJAA 300600Z 08010KT 9999 FEW035 26/18 Q1015 NOSIG RMK 2CU035 A2999

RJGG/NGO  -  名古屋/中部

観測日時
2022-09-30 06:00 (UTC) (27分前)
気温
25
露点
19
湿数
6
相対湿度
69.4%
QNH
1014.2hPa
推定現地気圧
1013.7hPa
推定海面気圧
1014.2hPa
体感温度
18.9
(無風時)
24.4
HI
25.4
気温前日比
±0
体感温度前日比
-1.6
HI前日比
+0.1
水平視程
>10000m
鉛直視程
データなし
雲底高度
No dense clouds
V/I
VMC (VFR)
RVR
No RVR data
卓越風
8kt from 200°
ガスト
No gust
降水
報告なし
その他の天気
報告なし
少しの(1/8) 積雲 @ 2500ft AGL

RJGG 300600Z 20008KT 9999 FEW025 25/19 Q1014 NOSIG RMK 1CU025 A2995

RJOO/ITM  -  大阪/伊丹

観測日時
2022-09-30 06:00 (UTC) (27分前)
気温
29
露点
17
湿数
12
相対湿度
48.4%
QNH
1013.2hPa
推定現地気圧
1011.8hPa
推定海面気圧
1013.2hPa
体感温度
23.3
(無風時)
25.9
HI
29.5
気温前日比
+3
体感温度前日比
+3.5
HI前日比
+3.6
水平視程
>10000m
鉛直視程
データなし
雲底高度
No dense clouds
V/I
VMC (VFR)
RVR
No RVR data
卓越風
4kt from VRB
ガスト
No gust
降水
報告なし
その他の天気
報告なし
少しの(2/8) 積雲 @ 2500ft AGL

RJOO 300600Z VRB04KT 9999 FEW025 29/17 Q1013 RMK 2CU025 A2992

RJBB/KIX  -  大阪/関西

観測日時
2022-09-30 06:00 (UTC) (27分前)
気温
27
露点
21
湿数
6
相対湿度
69.7%
QNH
1013hPa
推定現地気圧
1012.4hPa
推定海面気圧
1013.0hPa
体感温度
21.6
(無風時)
25.9
HI
28.8
気温前日比
+2
体感温度前日比
+2.5
HI前日比
+3.6
水平視程
>10000m
鉛直視程
データなし
雲底高度
No dense clouds
V/I
VMC (VFR)
RVR
No RVR data
卓越風
7kt from 270°
ガスト
No gust
降水
報告なし
その他の天気
報告なし
少しの雲 @ 2000ft AGL

RJBB 300600Z 27007KT 9999 FEW020 27/21 Q1013 BECMG 33006KT

RJFF/FUK  -  福岡

観測日時
2022-09-30 06:00 (UTC) (27分前)
気温
26
露点
19
湿数
7
相対湿度
65.4%
QNH
1013.9hPa
推定現地気圧
1012.8hPa
推定海面気圧
1013.8hPa
体感温度
19.7
(無風時)
24.9
HI
26.4
気温前日比
±0
体感温度前日比
+0.3
HI前日比
±0
水平視程
>10000m
鉛直視程
データなし
雲底高度
No dense clouds
V/I
VMC (VFR)
RVR
No RVR data
卓越風
9kt from 320°
ガスト
No gust
降水
報告なし
その他の天気
報告なし
少しの(1/8) 積雲 @ 2500ft AGL

RJFF 300600Z 32009KT 9999 FEW025 26/19 Q1014 NOSIG RMK 1CU025 A2994

ROAH/OKA  -  那覇

観測日時
2022-09-30 06:00 (UTC) (27分前)
気温
30
露点
24
湿数
6
相対湿度
70.3%
QNH
1014.2hPa
推定現地気圧
1013.8hPa
推定海面気圧
1014.1hPa
体感温度
24.9
(無風時)
28.3
HI
35.1
気温前日比
±0
体感温度前日比
-0.2
HI前日比
-2.3
水平視程
>10000m
鉛直視程
データなし
雲底高度
No dense clouds
V/I
VMC (VFR)
RVR
No RVR data
卓越風
10kt from 10°
ガスト
No gust
降水
しゅう雨性の降水 (種類不明) (周辺において)
その他の天気
報告なし
少しの(2/8) 積雲 @ 2000ft AGL

ROAH 300600Z 01010KT 9999 VCSH FEW020 30/24 Q1014 RMK 2CU020 A2995

95.6msec